CEB261 RPSP-RPLL
Flight info
| Callsign | CEB261 |
|---|---|
| Flight time | N/A |
| Altitude | 38000 |
| Route | LAMOK2P LAMOK B473 LAIYA LAIYA7R |
| Aircraft | A339/H-SADE1E2E3GHIJ3J5M1P2RWXY/LB2D1 |
Departure
| Time | 2026-04-28 14:11 |
|---|---|
| Airport | Bohol-Panglao International Airport (RPSP) |
Arrival
| Time | N/A |
|---|---|
| Airport | Ninoy Aquino International Airport (RPLL) |
| Time | Latitude | Longitude | Altitude | Speed | Heading |
|---|---|---|---|---|---|
| 2026-04-28 13:38 | 9.57048 | 123.77240 | 58 ft | 0 kts | 121° |
| 2026-04-28 14:01 | 9.57055 | 123.77228 | 58 ft | 2 kts | 121° |
| 2026-04-28 14:01 | 9.57062 | 123.77215 | 59 ft | 2 kts | 121° |
| 2026-04-28 14:01 | 9.57070 | 123.77202 | 58 ft | 2 kts | 121° |
| 2026-04-28 14:02 | 9.57078 | 123.77189 | 58 ft | 2 kts | 133° |
| 2026-04-28 14:02 | 9.57090 | 123.77180 | 59 ft | 2 kts | 156° |
| 2026-04-28 14:02 | 9.57104 | 123.77175 | 58 ft | 2 kts | 175° |
| 2026-04-28 14:02 | 9.57119 | 123.77176 | 58 ft | 2 kts | 195° |
| 2026-04-28 14:03 | 9.57129 | 123.77180 | 59 ft | 0 kts | 210° |
| 2026-04-28 14:03 | 9.57133 | 123.77182 | 59 ft | 0 kts | 211° |
| 2026-04-28 14:05 | 9.57130 | 123.77181 | 58 ft | 1 kts | 211° |
| 2026-04-28 14:05 | 9.57109 | 123.77169 | 58 ft | 5 kts | 206° |
| 2026-04-28 14:06 | 9.57065 | 123.77145 | 58 ft | 9 kts | 209° |
| 2026-04-28 14:06 | 9.56999 | 123.77106 | 58 ft | 12 kts | 210° |
| 2026-04-28 14:06 | 9.56917 | 123.77058 | 58 ft | 14 kts | 210° |
| 2026-04-28 14:06 | 9.56849 | 123.77013 | 58 ft | 11 kts | 227° |
| 2026-04-28 14:07 | 9.56858 | 123.76939 | 58 ft | 11 kts | 301° |
| 2026-04-28 14:07 | 9.56899 | 123.76868 | 58 ft | 12 kts | 301° |
| 2026-04-28 14:07 | 9.56924 | 123.76794 | 58 ft | 7 kts | 247° |
| 2026-04-28 14:07 | 9.56884 | 123.76768 | 58 ft | 8 kts | 211° |
| 2026-04-28 14:08 | 9.56838 | 123.76738 | 58 ft | 9 kts | 214° |
| 2026-04-28 14:08 | 9.56784 | 123.76701 | 58 ft | 10 kts | 213° |
| 2026-04-28 14:08 | 9.56711 | 123.76658 | 58 ft | 11 kts | 209° |
| 2026-04-28 14:08 | 9.56636 | 123.76615 | 58 ft | 12 kts | 209° |
| 2026-04-28 14:09 | 9.56556 | 123.76568 | 58 ft | 13 kts | 210° |
| 2026-04-28 14:09 | 9.56478 | 123.76551 | 58 ft | 13 kts | 185° |
| 2026-04-28 14:09 | 9.56438 | 123.76518 | 58 ft | 3 kts | 301° |
| 2026-04-28 14:09 | 9.56460 | 123.76515 | 58 ft | 6 kts | 6° |
| 2026-04-28 14:10 | 9.56485 | 123.76525 | 58 ft | 0 kts | 29° |
| 2026-04-28 14:10 | 9.56551 | 123.76565 | 58 ft | 39 kts | 31° |
| 2026-04-28 14:10 | 9.57000 | 123.76833 | 59 ft | 106 kts | 30° |
| 2026-04-28 14:11 | 9.57788 | 123.77305 | 108 ft | 152 kts | 30° |
| 2026-04-28 14:11 | 9.58713 | 123.77861 | 607 ft | 156 kts | 31° |
| 2026-04-28 14:11 | 9.59665 | 123.78449 | 1071 ft | 168 kts | 31° |
| 2026-04-28 14:11 | 9.60798 | 123.78870 | 1469 ft | 185 kts | 0° |
| 2026-04-28 14:12 | 9.62106 | 123.78680 | 1829 ft | 199 kts | 347° |
| 2026-04-28 14:12 | 9.63500 | 123.78350 | 2150 ft | 217 kts | 347° |
| 2026-04-28 14:12 | 9.64770 | 123.78044 | 2465 ft | 232 kts | 347° |
| 2026-04-28 14:12 | 9.66160 | 123.77718 | 2960 ft | 241 kts | 347° |
| 2026-04-28 14:13 | 9.67768 | 123.77354 | 3694 ft | 243 kts | 347° |
| 2026-04-28 14:13 | 9.69276 | 123.77022 | 4368 ft | 244 kts | 348° |
| 2026-04-28 14:13 | 9.70958 | 123.76659 | 5093 ft | 247 kts | 348° |
| 2026-04-28 14:13 | 9.72553 | 123.76318 | 5768 ft | 250 kts | 348° |
| 2026-04-28 14:14 | 9.74141 | 123.75981 | 6428 ft | 252 kts | 348° |
| 2026-04-28 14:14 | 9.75850 | 123.75619 | 7126 ft | 255 kts | 348° |
| 2026-04-28 14:14 | 9.77589 | 123.75281 | 7823 ft | 257 kts | 352° |
| 2026-04-28 14:14 | 9.79370 | 123.75096 | 8477 ft | 262 kts | 357° |
| 2026-04-28 14:15 | 9.81018 | 123.75050 | 8829 ft | 277 kts | 359° |
| 2026-04-28 14:15 | 9.82988 | 123.75030 | 9386 ft | 287 kts | 359° |
| 2026-04-28 14:15 | 9.84913 | 123.75016 | 10103 ft | 289 kts | 359° |
| 2026-04-28 14:15 | 9.86985 | 123.74995 | 10729 ft | 297 kts | 359° |
| 2026-04-28 14:16 | 9.89114 | 123.74834 | 11075 ft | 315 kts | 349° |
| 2026-04-28 14:16 | 9.91052 | 123.74249 | 11554 ft | 324 kts | 336° |
| 2026-04-28 14:16 | 9.92992 | 123.73235 | 12269 ft | 327 kts | 330° |
| 2026-04-28 14:16 | 9.94319 | 123.72463 | 12775 ft | 328 kts | 330° |
| 2026-04-28 14:17 | 9.95363 | 123.71847 | 13156 ft | 330 kts | 329° |
| 2026-04-28 14:17 | 9.96517 | 123.71162 | 13568 ft | 332 kts | 329° |
| 2026-04-28 14:17 | 9.98158 | 123.70189 | 14147 ft | 335 kts | 330° |
| 2026-04-28 14:17 | 9.99961 | 123.69125 | 14773 ft | 338 kts | 330° |
| 2026-04-28 14:18 | 10.01039 | 123.68491 | 15142 ft | 340 kts | 330° |
| 2026-04-28 14:18 | 10.02731 | 123.67499 | 15711 ft | 343 kts | 330° |
| 2026-04-28 14:18 | 10.04818 | 123.66278 | 16398 ft | 347 kts | 330° |
| 2026-04-28 14:18 | 10.06898 | 123.65063 | 17069 ft | 350 kts | 330° |
| 2026-04-28 14:19 | 10.09025 | 123.63820 | 17738 ft | 354 kts | 330° |
| 2026-04-28 14:19 | 10.10947 | 123.62695 | 18329 ft | 357 kts | 330° |
| 2026-04-28 14:19 | 10.12706 | 123.61665 | 18859 ft | 360 kts | 330° |
| 2026-04-28 14:19 | 10.13803 | 123.61024 | 19184 ft | 362 kts | 330° |
| 2026-04-28 14:20 | 10.16044 | 123.59714 | 19832 ft | 365 kts | 330° |
| 2026-04-28 14:20 | 10.17221 | 123.59026 | 20161 ft | 367 kts | 330° |
| 2026-04-28 14:20 | 10.18256 | 123.58422 | 20445 ft | 369 kts | 330° |
| 2026-04-28 14:20 | 10.18982 | 123.57998 | 20641 ft | 370 kts | 330° |
| 2026-04-28 14:21 | 10.20248 | 123.57259 | 20977 ft | 372 kts | 330° |
| 2026-04-28 14:21 | 10.20278 | 123.57241 | 20985 ft | 372 kts | 330° |